Wetterdaten: Woche 20.04.15 - 26.04.15 (KW17)
Datum Zeit Temp. A. Feuchte A. Luftdruck Regen Wind Richtung Sonnenschein ET UV Solar Taupunkt Windchill Windben
20.04.2015 00:00 3,3 C 79 % 1023,7 hPa 0,0 l/m 0,2 km/h (0 Bft) N 0,00 h 0,025 mm 0,0 UV-I 0 W/m -0,0 C 3,3 C 0,6 km/h (0 Bft)
20.04.2015 01:00 2,2 C 84 % 1023,9 hPa 0,0 l/m 0,0 km/h (0 Bft) N 0,00 h 0,000 mm 0,0 UV-I 0 W/m -0,3 C 2,2 C 0,0 km/h (0 Bft)
20.04.2015 02:00 1,5 C 86 % 1024,2 hPa 0,0 l/m 0,0 km/h (0 Bft) N 0,00 h 0,000 mm 0,0 UV-I 0 W/m -0,6 C 1,5 C 0,0 km/h (0 Bft)
20.04.2015 03:00 0,7 C 88 % 1024,1 hPa 0,0 l/m 0,0 km/h (0 Bft) N 0,00 h 0,000 mm 0,0 UV-I 0 W/m -1,1 C 0,7 C 0,0 km/h (0 Bft)
20.04.2015 04:00 0,2 C 90 % 1024,0 hPa 0,0 l/m 0,0 km/h (0 Bft) N 0,00 h 0,000 mm 0,0 UV-I 0 W/m -1,3 C 0,2 C 0,1 km/h (0 Bft)
20.04.2015 05:00 -0,0 C 91 % 1023,8 hPa 0,0 l/m 0,0 km/h (0 Bft) N 0,00 h 0,000 mm 0,0 UV-I 0 W/m -1,4 C -0,0 C 0,1 km/h (0 Bft)
20.04.2015 06:00 -0,2 C 91 % 1024,1 hPa 0,0 l/m 0,0 km/h (0 Bft) N 0,00 h 0,000 mm 0,0 UV-I 17 W/m -1,5 C -0,2 C 0,0 km/h (0 Bft)
20.04.2015 07:00 1,1 C 89 % 1024,2 hPa 0,0 l/m 0,0 km/h (0 Bft) N 0,78 h 0,000 mm 0,5 UV-I 74 W/m -0,6 C 1,1 C 0,1 km/h (0 Bft)
20.04.2015 08:00 5,0 C 78 % 1024,7 hPa 0,0 l/m 0,1 km/h (0 Bft) N 1,00 h 0,025 mm 0,9 UV-I 272 W/m 1,5 C 5,0 C 0,5 km/h (0 Bft)
20.04.2015 09:00 9,7 C 62 % 1024,6 hPa 0,0 l/m 2,9 km/h (1 Bft) N 1,00 h 0,102 mm 1,8 UV-I 514 W/m 2,8 C 9,6 C 5,5 km/h (2 Bft)
20.04.2015 10:00 12,1 C 52 % 1024,5 hPa 0,0 l/m 7,4 km/h (2 Bft) N 1,00 h 0,254 mm 2,7 UV-I 656 W/m 2,6 C 11,0 C 12,5 km/h (2 Bft)
20.04.2015 11:00 13,8 C 44 % 1024,5 hPa 0,0 l/m 9,0 km/h (2 Bft) N 1,00 h 0,356 mm 3,9 UV-I 761 W/m 1,9 C 12,3 C 15,0 km/h (3 Bft)
20.04.2015 12:00 15,3 C 41 % 1024,6 hPa 0,0 l/m 12,3 km/h (2 Bft) N 1,00 h 0,457 mm 4,5 UV-I 816 W/m 2,1 C 12,7 C 19,1 km/h (3 Bft)
20.04.2015 13:00 15,9 C 41 % 1024,2 hPa 0,0 l/m 11,6 km/h (2 Bft) N 1,00 h 0,508 mm 4,7 UV-I 818 W/m 2,5 C 13,6 C 18,4 km/h (3 Bft)
20.04.2015 14:00 16,9 C 40 % 1024,0 hPa 0,0 l/m 10,6 km/h (2 Bft) N 1,00 h 0,508 mm 4,2 UV-I 771 W/m 3,1 C 15,0 C 16,7 km/h (3 Bft)
20.04.2015 15:00 17,3 C 38 % 1023,5 hPa 0,0 l/m 10,7 km/h (2 Bft) N 1,00 h 0,508 mm 3,3 UV-I 685 W/m 2,9 C 15,5 C 17,1 km/h (3 Bft)
20.04.2015 16:00 17,1 C 39 % 1023,3 hPa 0,0 l/m 13,6 km/h (3 Bft) N 1,00 h 0,457 mm 2,3 UV-I 555 W/m 2,8 C 14,3 C 20,7 km/h (4 Bft)
20.04.2015 17:00 16,1 C 41 % 1023,3 hPa 0,0 l/m 13,0 km/h (3 Bft) N 1,00 h 0,406 mm 1,3 UV-I 394 W/m 2,7 C 13,3 C 20,9 km/h (4 Bft)
20.04.2015 18:00 14,7 C 44 % 1023,7 hPa 0,0 l/m 13,2 km/h (3 Bft) N 0,27 h 0,305 mm 0,8 UV-I 93 W/m 2,4 C 11,6 C 20,6 km/h (4 Bft)
20.04.2015 19:00 13,3 C 49 % 1024,1 hPa 0,0 l/m 5,7 km/h (2 Bft) N 0,00 h 0,152 mm 0,0 UV-I 21 W/m 2,8 C 12,3 C 9,8 km/h (2 Bft)
20.04.2015 20:00 11,9 C 55 % 1024,6 hPa 0,0 l/m 0,3 km/h (0 Bft) N 0,00 h 0,051 mm 0,0 UV-I 7 W/m 3,1 C 11,9 C 1,2 km/h (1 Bft)
20.04.2015 21:00 9,9 C 64 % 1025,1 hPa 0,0 l/m 0,0 km/h (0 Bft) N 0,00 h 0,000 mm 0,0 UV-I 0 W/m 3,4 C 9,9 C 0,0 km/h (0 Bft)
20.04.2015 22:00 8,0 C 72 % 1025,4 hPa 0,0 l/m 0,0 km/h (0 Bft) N 0,00 h 0,025 mm 0,0 UV-I 0 W/m 3,3 C 8,0 C 0,1 km/h (0 Bft)
20.04.2015 23:00 6,5 C 79 % 1025,8 hPa 0,0 l/m 0,1 km/h (0 Bft) N 0,00 h 0,025 mm 0,0 UV-I 0 W/m 3,1 C 6,5 C 0,5 km/h (0 Bft)
21.04.2015 00:00 5,5 C 82 % 1025,9 hPa 0,0 l/m 0,1 km/h (0 Bft) N 0,00 h 0,025 mm 0,0 UV-I 0 W/m 2,7 C 5,5 C 0,3 km/h (0 Bft)
21.04.2015 01:00 4,3 C 86 % 1026,1 hPa 0,0 l/m 0,0 km/h (0 Bft) N 0,00 h 0,000 mm 0,0 UV-I 0 W/m 2,1 C 4,3 C 0,2 km/h (0 Bft)
21.04.2015 02:00 3,4 C 88 % 1026,3 hPa 0,0 l/m 0,1 km/h (0 Bft) N 0,00 h 0,000 mm 0,0 UV-I 0 W/m 1,6 C 3,4 C 0,4 km/h (0 Bft)
21.04.2015 03:00 2,7 C 90 % 1026,5 hPa 0,0 l/m 0,0 km/h (0 Bft) N 0,00 h 0,000 mm 0,0 UV-I 0 W/m 1,1 C 2,7 C 0,5 km/h (0 Bft)
21.04.2015 04:00 1,7 C 91 % 1027,0 hPa 0,0 l/m 0,0 km/h (0 Bft) N 0,00 h 0,000 mm 0,0 UV-I 0 W/m 0,4 C 1,7 C 0,0 km/h (0 Bft)
21.04.2015 05:00 1,0 C 92 % 1027,2 hPa 0,0 l/m 0,2 km/h (0 Bft) N 0,00 h 0,000 mm 0,0 UV-I 0 W/m -0,2 C 1,0 C 0,7 km/h (0 Bft)
21.04.2015 06:00 0,8 C 93 % 1027,6 hPa 0,0 l/m 0,2 km/h (0 Bft) N 0,00 h 0,000 mm 0,0 UV-I 11 W/m -0,2 C 0,8 C 0,5 km/h (0 Bft)
21.04.2015 07:00 2,1 C 91 % 1027,9 hPa 0,0 l/m 0,1 km/h (0 Bft) N 0,77 h 0,000 mm 0,5 UV-I 76 W/m 0,7 C 2,1 C 0,3 km/h (0 Bft)
21.04.2015 08:00 6,7 C 77 % 1028,0 hPa 0,0 l/m 0,3 km/h (0 Bft) N 1,00 h 0,025 mm 1,0 UV-I 297 W/m 2,9 C 6,7 C 1,2 km/h (1 Bft)
21.04.2015 09:00 10,5 C 58 % 1028,0 hPa 0,0 l/m 2,2 km/h (1 Bft) W 1,00 h 0,127 mm 2,0 UV-I 536 W/m 2,5 C 10,5 C 4,9 km/h (1 Bft)
21.04.2015 10:00 13,3 C 46 % 1027,6 hPa 0,0 l/m 3,5 km/h (1 Bft) W-NW 1,00 h 0,254 mm 3,1 UV-I 675 W/m 2,0 C 13,2 C 6,8 km/h (2 Bft)
21.04.2015 11:00 16,0 C 38 % 1027,7 hPa 0,0 l/m 6,1 km/h (2 Bft) W-NW 1,00 h 0,356 mm 4,3 UV-I 771 W/m 1,8 C 15,5 C 10,6 km/h (2 Bft)
21.04.2015 12:00 18,0 C 35 % 1027,2 hPa 0,0 l/m 8,4 km/h (2 Bft) W-NW 1,00 h 0,457 mm 5,1 UV-I 822 W/m 2,2 C 16,9 C 13,5 km/h (3 Bft)
21.04.2015 13:00 20,1 C 30 % 1026,5 hPa 0,0 l/m 10,9 km/h (2 Bft) NW 1,00 h 0,533 mm 5,1 UV-I 829 W/m 1,9 C 18,5 C 17,2 km/h (3 Bft)
21.04.2015 14:00 21,1 C 26 % 1026,0 hPa 0,0 l/m 11,5 km/h (2 Bft) NW 1,00 h 0,584 mm 4,6 UV-I 783 W/m 1,0 C 19,6 C 18,7 km/h (3 Bft)
21.04.2015 15:00 21,3 C 23 % 1025,5 hPa 0,0 l/m 14,6 km/h (3 Bft) NW 1,00 h 0,584 mm 3,6 UV-I 697 W/m -0,5 C 19,0 C 22,3 km/h (4 Bft)
21.04.2015 16:00 20,8 C 22 % 1025,1 hPa 0,0 l/m 16,9 km/h (3 Bft) N-NW 1,00 h 0,584 mm 2,5 UV-I 565 W/m -1,5 C 17,9 C 26,4 km/h (4 Bft)
21.04.2015 17:00 19,9 C 24 % 1024,9 hPa 0,0 l/m 15,7 km/h (3 Bft) N-NW 1,00 h 0,508 mm 1,4 UV-I 394 W/m -1,3 C 17,1 C 24,6 km/h (4 Bft)
21.04.2015 18:00 18,5 C 26 % 1024,6 hPa 0,0 l/m 17,5 km/h (3 Bft) NW 0,23 h 0,406 mm 0,8 UV-I 83 W/m -1,5 C 14,9 C 26,0 km/h (4 Bft)
21.04.2015 19:00 17,1 C 28 % 1024,6 hPa 0,0 l/m 13,2 km/h (3 Bft) N-NW 0,00 h 0,229 mm 0,0 UV-I 18 W/m -1,7 C 14,4 C 20,6 km/h (4 Bft)
21.04.2015 20:00 15,4 C 32 % 1024,8 hPa 0,0 l/m 12,3 km/h (2 Bft) N-NW 0,00 h 0,152 mm 0,0 UV-I 6 W/m -1,1 C 12,6 C 18,3 km/h (3 Bft)
21.04.2015 21:00 13,8 C 36 % 1025,5 hPa 0,0 l/m 4,0 km/h (1 Bft) N 0,00 h 0,102 mm 0,0 UV-I 0 W/m -1,0 C 13,4 C 8,2 km/h (2 Bft)
21.04.2015 22:00 10,8 C 46 % 1026,0 hPa 0,0 l/m 0,1 km/h (0 Bft) N 0,00 h 0,076 mm 0,0 UV-I 0 W/m -0,4 C 10,8 C 0,5 km/h (0 Bft)
21.04.2015 23:00 8,3 C 60 % 1026,1 hPa 0,0 l/m 0,0 km/h (0 Bft) N 0,00 h 0,051 mm 0,0 UV-I 0 W/m 0,9 C 8,3 C 0,0 km/h (0 Bft)
22.04.2015 00:00 6,2 C 70 % 1026,2 hPa 0,0 l/m 0,0 km/h (0 Bft) N 0,00 h 0,025 mm 0,0 UV-I 0 W/m 1,0 C 6,2 C 0,1 km/h (0 Bft)
22.04.2015 01:00 5,1 C 76 % 1026,2 hPa 0,0 l/m 0,1 km/h (0 Bft) N 0,00 h 0,025 mm 0,0 UV-I 0 W/m 1,1 C 5,1 C 0,4 km/h (0 Bft)
22.04.2015 02:00 3,9 C 79 % 1025,6 hPa 0,0 l/m 0,0 km/h (0 Bft) N 0,00 h 0,025 mm 0,0 UV-I 0 W/m 0,6 C 3,9 C 0,2 km/h (0 Bft)
22.04.2015 03:00 2,5 C 83 % 1025,3 hPa 0,0 l/m 0,0 km/h (0 Bft) N 0,00 h 0,000 mm 0,0 UV-I 0 W/m -0,1 C 2,5 C 0,3 km/h (0 Bft)
22.04.2015 04:00 1,8 C 86 % 1024,8 hPa 0,0 l/m 0,2 km/h (0 Bft) N 0,00 h 0,000 mm 0,0 UV-I 0 W/m -0,3 C 1,8 C 0,8 km/h (0 Bft)
22.04.2015 05:00 0,9 C 88 % 1024,5 hPa 0,0 l/m 0,1 km/h (0 Bft) N 0,00 h 0,000 mm 0,0 UV-I 0 W/m -0,8 C 0,9 C 0,2 km/h (0 Bft)
22.04.2015 06:00 0,2 C 89 % 1024,3 hPa 0,0 l/m 0,1 km/h (0 Bft) N 0,00 h 0,000 mm 0,0 UV-I 13 W/m -1,3 C 0,2 C 0,2 km/h (0 Bft)
22.04.2015 07:00 2,4 C 84 % 1024,7 hPa 0,0 l/m 1,9 km/h (1 Bft) N 0,68 h 0,000 mm 0,5 UV-I 72 W/m -0,1 C 2,0 C 3,6 km/h (1 Bft)
22.04.2015 08:00 5,4 C 76 % 1024,5 hPa 0,0 l/m 3,5 km/h (1 Bft) N 1,00 h 0,025 mm 0,9 UV-I 182 W/m 1,4 C 4,7 C 6,6 km/h (2 Bft)
22.04.2015 09:00 6,4 C 74 % 1024,2 hPa 0,0 l/m 5,4 km/h (1 Bft) N-NO 1,00 h 0,076 mm 1,4 UV-I 251 W/m 2,1 C 5,8 C 9,8 km/h (2 Bft)
22.04.2015 10:00 8,5 C 68 % 1024,0 hPa 0,0 l/m 7,9 km/h (2 Bft) N-NO 1,00 h 0,127 mm 2,8 UV-I 664 W/m 3,0 C 7,0 C 13,4 km/h (3 Bft)
22.04.2015 11:00 9,4 C 62 % 1024,0 hPa 0,0 l/m 8,2 km/h (2 Bft) N 1,00 h 0,305 mm 3,9 UV-I 741 W/m 2,5 C 7,7 C 13,6 km/h (3 Bft)
22.04.2015 12:00 10,8 C 57 % 1023,4 hPa 0,0 l/m 10,5 km/h (2 Bft) N 1,00 h 0,381 mm 3,8 UV-I 656 W/m 2,6 C 8,2 C 16,3 km/h (3 Bft)
22.04.2015 13:00 12,5 C 53 % 1022,8 hPa 0,0 l/m 8,3 km/h (2 Bft) N 1,00 h 0,356 mm 4,5 UV-I 822 W/m 3,1 C 11,0 C 14,0 km/h (3 Bft)
22.04.2015 14:00 13,3 C 46 % 1022,0 hPa 0,0 l/m 7,9 km/h (2 Bft) W-NW 1,00 h 0,432 mm 4,1 UV-I 793 W/m 2,1 C 12,1 C 13,2 km/h (3 Bft)
22.04.2015 15:00 13,4 C 42 % 1021,4 hPa 0,0 l/m 7,4 km/h (2 Bft) N 1,00 h 0,457 mm 2,9 UV-I 606 W/m 0,8 C 12,4 C 12,4 km/h (2 Bft)
22.04.2015 16:00 10,3 C 53 % 1021,7 hPa 0,0 l/m 13,4 km/h (3 Bft) N-NW 1,00 h 0,356 mm 0,9 UV-I 125 W/m 1,1 C 6,4 C 21,0 km/h (4 Bft)
22.04.2015 17:00 6,9 C 71 % 1022,3 hPa 0,6 l/m 13,5 km/h (3 Bft) N-NW 0,33 h 0,127 mm 0,6 UV-I 43 W/m 1,9 C 2,4 C 21,1 km/h (4 Bft)
22.04.2015 18:00 5,6 C 86 % 1022,2 hPa 0,0 l/m 8,4 km/h (2 Bft) N 0,95 h 0,051 mm 0,5 UV-I 115 W/m 3,4 C 3,7 C 13,7 km/h (3 Bft)
22.04.2015 19:00 5,1 C 87 % 1022,0 hPa 0,0 l/m 6,7 km/h (2 Bft) N 0,25 h 0,051 mm 0,0 UV-I 39 W/m 3,0 C 3,9 C 11,5 km/h (2 Bft)
22.04.2015 20:00 4,4 C 89 % 1022,2 hPa 0,0 l/m 6,0 km/h (2 Bft) N 0,00 h 0,025 mm 0,0 UV-I 8 W/m 2,7 C 3,5 C 10,8 km/h (2 Bft)
22.04.2015 21:00 3,9 C 90 % 1022,1 hPa 0,0 l/m 4,5 km/h (1 Bft) N 0,00 h 0,000 mm 0,0 UV-I 0 W/m 2,4 C 3,6 C 8,2 km/h (2 Bft)
22.04.2015 22:00 3,8 C 91 % 1022,0 hPa 0,0 l/m 3,5 km/h (1 Bft) N 0,00 h 0,000 mm 0,0 UV-I 0 W/m 2,5 C 3,6 C 6,6 km/h (2 Bft)
22.04.2015 23:00 3,6 C 91 % 1022,2 hPa 2,4 l/m 1,8 km/h (1 Bft) N 0,00 h 0,000 mm 0,0 UV-I 0 W/m 2,3 C 3,6 C 3,7 km/h (1 Bft)
23.04.2015 00:00 3,4 C 94 % 1022,0 hPa 0,6 l/m 1,9 km/h (1 Bft) N 0,00 h 0,000 mm 0,0 UV-I 0 W/m 2,5 C 3,4 C 4,4 km/h (1 Bft)
23.04.2015 01:00 3,6 C 94 % 1021,7 hPa 0,0 l/m 3,3 km/h (1 Bft) N 0,00 h 0,000 mm 0,0 UV-I 0 W/m 2,7 C 3,5 C 5,8 km/h (2 Bft)
23.04.2015 02:00 3,6 C 94 % 1020,8 hPa 0,0 l/m 3,1 km/h (1 Bft) N 0,00 h 0,000 mm 0,0 UV-I 0 W/m 2,7 C 3,4 C 5,9 km/h (2 Bft)
23.04.2015 03:00 3,8 C 93 % 1020,5 hPa 0,0 l/m 2,7 km/h (1 Bft) N 0,00 h 0,000 mm 0,0 UV-I 0 W/m 2,9 C 3,8 C 5,4 km/h (2 Bft)
23.04.2015 04:00 3,9 C 94 % 1019,9 hPa 0,0 l/m 1,1 km/h (0 Bft) N 0,00 h 0,000 mm 0,0 UV-I 0 W/m 3,0 C 3,9 C 2,3 km/h (1 Bft)
23.04.2015 05:00 4,0 C 94 % 1019,7 hPa 0,0 l/m 3,2 km/h (1 Bft) N 0,00 h 0,000 mm 0,0 UV-I 0 W/m 3,2 C 4,0 C 6,0 km/h (2 Bft)
23.04.2015 06:00 4,2 C 94 % 1019,7 hPa 0,0 l/m 0,6 km/h (0 Bft) N 0,00 h 0,000 mm 0,0 UV-I 20 W/m 3,3 C 4,2 C 1,8 km/h (1 Bft)
23.04.2015 07:00 4,6 C 94 % 1019,7 hPa 0,0 l/m 0,1 km/h (0 Bft) N 0,75 h 0,000 mm 0,5 UV-I 79 W/m 3,7 C 4,6 C 0,4 km/h (0 Bft)
23.04.2015 08:00 5,5 C 92 % 1019,8 hPa 0,0 l/m 0,2 km/h (0 Bft) N 1,00 h 0,025 mm 0,5 UV-I 111 W/m 4,3 C 5,5 C 0,6 km/h (0 Bft)
23.04.2015 09:00 6,9 C 87 % 1019,8 hPa 0,0 l/m 0,3 km/h (0 Bft) N 1,00 h 0,051 mm 1,1 UV-I 206 W/m 4,9 C 6,9 C 1,0 km/h (0 Bft)
23.04.2015 10:00 9,0 C 80 % 1019,9 hPa 0,0 l/m 1,0 km/h (0 Bft) N 1,00 h 0,102 mm 2,3 UV-I 383 W/m 5,7 C 9,0 C 2,8 km/h (1 Bft)
23.04.2015 11:00 10,6 C 70 % 1019,5 hPa 0,0 l/m 2,0 km/h (1 Bft) N 1,00 h 0,178 mm 3,7 UV-I 735 W/m 5,4 C 10,5 C 4,3 km/h (1 Bft)
23.04.2015 12:00 12,3 C 62 % 1018,9 hPa 0,0 l/m 2,6 km/h (1 Bft) S-SO 1,00 h 0,356 mm 4,6 UV-I 847 W/m 5,1 C 12,2 C 5,7 km/h (2 Bft)
23.04.2015 13:00 13,4 C 58 % 1018,4 hPa 0,0 l/m 2,9 km/h (1 Bft) N 1,00 h 0,406 mm 3,9 UV-I 669 W/m 5,3 C 13,3 C 6,0 km/h (2 Bft)
23.04.2015 14:00 15,3 C 53 % 1017,7 hPa 0,0 l/m 3,5 km/h (1 Bft) O-SO 1,00 h 0,330 mm 3,7 UV-I 730 W/m 5,8 C 15,2 C 7,3 km/h (2 Bft)
23.04.2015 15:00 15,1 C 50 % 1017,1 hPa 0,0 l/m 4,8 km/h (1 Bft) SO 1,00 h 0,406 mm 2,7 UV-I 534 W/m 4,8 C 14,7 C 8,9 km/h (2 Bft)
23.04.2015 16:00 14,9 C 49 % 1016,8 hPa 0,0 l/m 3,9 km/h (1 Bft) O-SO 1,00 h 0,330 mm 1,9 UV-I 456 W/m 4,3 C 14,7 C 7,7 km/h (2 Bft)
23.04.2015 17:00 14,0 C 51 % 1016,7 hPa 0,0 l/m 1,5 km/h (1 Bft) S-SO 1,00 h 0,254 mm 1,0 UV-I 160 W/m 3,9 C 14,0 C 3,9 km/h (1 Bft)
23.04.2015 18:00 13,7 C 54 % 1016,5 hPa 0,0 l/m 1,6 km/h (1 Bft) S 1,00 h 0,102 mm 0,6 UV-I 108 W/m 4,5 C 13,7 C 3,9 km/h (1 Bft)
23.04.2015 19:00 12,7 C 60 % 1016,4 hPa 0,0 l/m 1,4 km/h (1 Bft) S-SW 0,00 h 0,076 mm 0,0 UV-I 30 W/m 5,2 C 12,7 C 4,1 km/h (1 Bft)
23.04.2015 20:00 11,2 C 65 % 1016,6 hPa 0,0 l/m 0,2 km/h (0 Bft) N 0,00 h 0,025 mm 0,0 UV-I 8 W/m 4,9 C 11,2 C 1,3 km/h (1 Bft)
23.04.2015 21:00 10,0 C 70 % 1016,9 hPa 0,0 l/m 0,2 km/h (0 Bft) N 0,00 h 0,000 mm 0,0 UV-I 0 W/m 4,8 C 10,0 C 1,2 km/h (1 Bft)
23.04.2015 22:00 8,4 C 73 % 1017,2 hPa 0,0 l/m 0,3 km/h (0 Bft) N 0,00 h 0,025 mm 0,0 UV-I 0 W/m 3,9 C 8,4 C 1,3 km/h (1 Bft)
23.04.2015 23:00 8,2 C 74 % 1017,2 hPa 0,0 l/m 0,3 km/h (0 Bft) N 0,00 h 0,025 mm 0,0 UV-I 0 W/m 3,7 C 8,2 C 1,1 km/h (0 Bft)
24.04.2015 00:00 7,8 C 76 % 1017,0 hPa 0,0 l/m 0,1 km/h (0 Bft) N 0,00 h 0,025 mm 0,0 UV-I 0 W/m 3,8 C 7,8 C 0,8 km/h (0 Bft)
24.04.2015 01:00 7,0 C 80 % 1016,8 hPa 0,0 l/m 0,1 km/h (0 Bft) N 0,00 h 0,025 mm 0,0 UV-I 0 W/m 3,8 C 7,0 C 0,7 km/h (0 Bft)
24.04.2015 02:00 5,6 C 86 % 1016,5 hPa 0,0 l/m 0,2 km/h (0 Bft) N 0,00 h 0,000 mm 0,0 UV-I 0 W/m 3,4 C 5,6 C 0,6 km/h (0 Bft)
24.04.2015 03:00 4,2 C 90 % 1016,5 hPa 0,0 l/m 0,0 km/h (0 Bft) N 0,00 h 0,000 mm 0,0 UV-I 0 W/m 2,6 C 4,2 C 0,0 km/h (0 Bft)
24.04.2015 04:00 3,7 C 92 % 1016,4 hPa 0,0 l/m 0,0 km/h (0 Bft) N 0,00 h 0,000 mm 0,0 UV-I 0 W/m 2,5 C 3,7 C 0,1 km/h (0 Bft)
24.04.2015 05:00 3,0 C 92 % 1016,3 hPa 0,0 l/m 0,0 km/h (0 Bft) N 0,00 h 0,000 mm 0,0 UV-I 0 W/m 1,9 C 3,0 C 0,0 km/h (0 Bft)
24.04.2015 06:00 2,6 C 94 % 1016,5 hPa 0,0 l/m 0,0 km/h (0 Bft) N 0,00 h 0,000 mm 0,0 UV-I 18 W/m 1,7 C 2,6 C 0,1 km/h (0 Bft)
24.04.2015 07:00 3,7 C 92 % 1016,9 hPa 0,0 l/m 0,0 km/h (0 Bft) N 0,83 h 0,000 mm 0,5 UV-I 81 W/m 2,6 C 3,7 C 0,1 km/h (0 Bft)
24.04.2015 08:00 6,1 C 88 % 1017,2 hPa 0,0 l/m 0,3 km/h (0 Bft) N 1,00 h 0,025 mm 0,9 UV-I 197 W/m 4,3 C 6,1 C 1,6 km/h (1 Bft)
24.04.2015 09:00 7,8 C 82 % 1017,1 hPa 0,0 l/m 1,4 km/h (1 Bft) W-SW 1,00 h 0,076 mm 1,3 UV-I 223 W/m 4,9 C 7,8 C 3,5 km/h (1 Bft)
24.04.2015 10:00 10,5 C 73 % 1016,9 hPa 0,0 l/m 1,5 km/h (1 Bft) S-SO 1,00 h 0,102 mm 2,8 UV-I 577 W/m 5,7 C 10,5 C 3,9 km/h (1 Bft)
24.04.2015 11:00 13,6 C 59 % 1016,5 hPa 0,0 l/m 2,5 km/h (1 Bft) S 1,00 h 0,279 mm 4,1 UV-I 744 W/m 5,6 C 13,5 C 5,8 km/h (2 Bft)
24.04.2015 12:00 14,9 C 55 % 1015,8 hPa 0,0 l/m 5,7 km/h (2 Bft) S 1,00 h 0,381 mm 4,8 UV-I 794 W/m 5,9 C 14,5 C 9,7 km/h (2 Bft)
24.04.2015 13:00 15,9 C 51 % 1015,3 hPa 0,0 l/m 7,3 km/h (2 Bft) S 1,00 h 0,457 mm 4,9 UV-I 810 W/m 5,8 C 15,2 C 12,5 km/h (2 Bft)
24.04.2015 14:00 16,6 C 48 % 1014,8 hPa 0,0 l/m 8,1 km/h (2 Bft) W-SW 1,00 h 0,483 mm 4,4 UV-I 773 W/m 5,6 C 15,6 C 14,2 km/h (3 Bft)
24.04.2015 15:00 17,2 C 43 % 1014,1 hPa 0,0 l/m 7,0 km/h (2 Bft) W-SW 1,00 h 0,483 mm 3,4 UV-I 679 W/m 4,7 C 16,6 C 12,5 km/h (2 Bft)
24.04.2015 16:00 17,2 C 43 % 1013,6 hPa 0,0 l/m 6,9 km/h (2 Bft) S 1,00 h 0,432 mm 2,3 UV-I 538 W/m 4,4 C 16,5 C 11,8 km/h (2 Bft)
24.04.2015 17:00 16,9 C 44 % 1013,3 hPa 0,0 l/m 7,8 km/h (2 Bft) S 1,00 h 0,356 mm 1,3 UV-I 371 W/m 4,7 C 15,9 C 12,6 km/h (2 Bft)
24.04.2015 18:00 16,3 C 43 % 1013,2 hPa 0,0 l/m 6,8 km/h (2 Bft) S 0,43 h 0,254 mm 0,8 UV-I 75 W/m 3,5 C 15,7 C 11,6 km/h (2 Bft)
24.04.2015 19:00 15,2 C 43 % 1013,2 hPa 0,0 l/m 3,7 km/h (1 Bft) S 0,00 h 0,102 mm 0,0 UV-I 24 W/m 2,7 C 15,1 C 7,0 km/h (2 Bft)
24.04.2015 20:00 13,5 C 48 % 1013,2 hPa 0,0 l/m 1,7 km/h (1 Bft) S-SO 0,00 h 0,051 mm 0,0 UV-I 6 W/m 2,8 C 13,5 C 3,5 km/h (1 Bft)
24.04.2015 21:00 11,0 C 59 % 1013,3 hPa 0,0 l/m 0,8 km/h (0 Bft) O-SO 0,00 h 0,025 mm 0,0 UV-I 0 W/m 3,3 C 11,0 C 2,3 km/h (1 Bft)
24.04.2015 22:00 9,2 C 66 % 1013,6 hPa 0,0 l/m 0,1 km/h (0 Bft) N 0,00 h 0,025 mm 0,0 UV-I 0 W/m 3,2 C 9,2 C 0,4 km/h (0 Bft)
24.04.2015 23:00 7,1 C 78 % 1013,7 hPa 0,0 l/m 0,1 km/h (0 Bft) N 0,00 h 0,025 mm 0,0 UV-I 0 W/m 3,4 C 7,1 C 0,6 km/h (0 Bft)
25.04.2015 00:00 5,7 C 82 % 1013,6 hPa 0,0 l/m 0,1 km/h (0 Bft) N 0,00 h 0,025 mm 0,0 UV-I 0 W/m 2,9 C 5,7 C 0,5 km/h (0 Bft)
25.04.2015 01:00 4,7 C 86 % 1013,5 hPa 0,0 l/m 0,0 km/h (0 Bft) N 0,00 h 0,000 mm 0,0 UV-I 0 W/m 2,5 C 4,7 C 0,0 km/h (0 Bft)
25.04.2015 02:00 3,7 C 88 % 1013,1 hPa 0,0 l/m 0,0 km/h (0 Bft) N 0,00 h 0,000 mm 0,0 UV-I 0 W/m 2,0 C 3,7 C 0,0 km/h (0 Bft)
25.04.2015 03:00 3,0 C 90 % 1013,0 hPa 0,0 l/m 0,0 km/h (0 Bft) N 0,00 h 0,000 mm 0,0 UV-I 0 W/m 1,5 C 3,0 C 0,0 km/h (0 Bft)
25.04.2015 04:00 2,3 C 91 % 1012,8 hPa 0,0 l/m 0,0 km/h (0 Bft) N 0,00 h 0,000 mm 0,0 UV-I 0 W/m 1,0 C 2,3 C 0,0 km/h (0 Bft)
25.04.2015 05:00 1,9 C 92 % 1012,5 hPa 0,0 l/m 0,0 km/h (0 Bft) N 0,00 h 0,000 mm 0,0 UV-I 0 W/m 0,7 C 1,9 C 0,1 km/h (0 Bft)
25.04.2015 06:00 1,9 C 92 % 1012,5 hPa 0,0 l/m 0,0 km/h (0 Bft) N 0,00 h 0,000 mm 0,0 UV-I 27 W/m 0,8 C 1,9 C 0,0 km/h (0 Bft)
25.04.2015 07:00 3,5 C 90 % 1012,5 hPa 0,0 l/m 0,0 km/h (0 Bft) N 0,93 h 0,000 mm 0,5 UV-I 94 W/m 2,0 C 3,5 C 0,1 km/h (0 Bft)
25.04.2015 08:00 7,0 C 83 % 1012,3 hPa 0,0 l/m 0,0 km/h (0 Bft) N 1,00 h 0,025 mm 0,9 UV-I 221 W/m 4,3 C 7,0 C 0,2 km/h (0 Bft)
25.04.2015 09:00 11,4 C 69 % 1012,1 hPa 0,0 l/m 0,3 km/h (0 Bft) N 1,00 h 0,102 mm 1,7 UV-I 378 W/m 5,9 C 11,4 C 1,0 km/h (0 Bft)
25.04.2015 10:00 14,8 C 59 % 1011,7 hPa 0,0 l/m 4,5 km/h (1 Bft) S-SO 1,00 h 0,178 mm 2,4 UV-I 429 W/m 6,9 C 14,1 C 7,7 km/h (2 Bft)
25.04.2015 11:00 16,7 C 48 % 1011,4 hPa 0,0 l/m 8,7 km/h (2 Bft) S 1,00 h 0,254 mm 3,0 UV-I 484 W/m 5,7 C 15,5 C 14,8 km/h (3 Bft)
25.04.2015 12:00 17,0 C 45 % 1011,1 hPa 0,0 l/m 9,2 km/h (2 Bft) S 1,00 h 0,330 mm 2,6 UV-I 365 W/m 5,1 C 15,7 C 14,6 km/h (3 Bft)
25.04.2015 13:00 17,9 C 45 % 1010,8 hPa 0,0 l/m 8,4 km/h (2 Bft) S 1,00 h 0,254 mm 3,5 UV-I 517 W/m 5,8 C 16,8 C 14,6 km/h (3 Bft)
25.04.2015 14:00 17,6 C 46 % 1010,5 hPa 0,0 l/m 7,3 km/h (2 Bft) SW 1,00 h 0,356 mm 1,4 UV-I 186 W/m 6,0 C 16,9 C 13,5 km/h (3 Bft)
25.04.2015 15:00 16,4 C 53 % 1010,4 hPa 0,0 l/m 10,2 km/h (2 Bft) W-SW 1,00 h 0,152 mm 1,4 UV-I 202 W/m 6,7 C 14,6 C 16,7 km/h (3 Bft)
25.04.2015 16:00 16,8 C 55 % 1009,7 hPa 0,0 l/m 9,2 km/h (2 Bft) S 1,00 h 0,178 mm 1,8 UV-I 322 W/m 7,6 C 15,4 C 14,9 km/h (3 Bft)
25.04.2015 17:00 17,0 C 54 % 1009,8 hPa 0,0 l/m 11,7 km/h (2 Bft) W-SW 1,00 h 0,229 mm 1,0 UV-I 168 W/m 7,7 C 14,7 C 19,0 km/h (3 Bft)
25.04.2015 18:00 15,4 C 65 % 1010,0 hPa 0,0 l/m 9,1 km/h (2 Bft) W-SW 0,37 h 0,152 mm 0,5 UV-I 52 W/m 8,8 C 14,0 C 14,7 km/h (3 Bft)
25.04.2015 19:00 13,6 C 80 % 1010,4 hPa 0,0 l/m 6,9 km/h (2 Bft) W-SW 0,00 h 0,076 mm 0,0 UV-I 19 W/m 10,1 C 12,6 C 11,8 km/h (2 Bft)
25.04.2015 20:00 12,7 C 84 % 1010,6 hPa 0,0 l/m 4,3 km/h (1 Bft) S-SW 0,00 h 0,025 mm 0,0 UV-I 7 W/m 10,0 C 12,5 C 8,8 km/h (2 Bft)
25.04.2015 21:00 12,4 C 85 % 1010,8 hPa 0,0 l/m 2,3 km/h (1 Bft) S-SW 0,00 h 0,000 mm 0,0 UV-I 0 W/m 10,0 C 12,4 C 5,6 km/h (2 Bft)
25.04.2015 22:00 12,0 C 87 % 1010,5 hPa 0,0 l/m 1,3 km/h (1 Bft) S-SW 0,00 h 0,025 mm 0,0 UV-I 0 W/m 9,9 C 12,0 C 3,7 km/h (1 Bft)
25.04.2015 23:00 11,7 C 89 % 1010,4 hPa 0,0 l/m 1,3 km/h (1 Bft) S-SW 0,00 h 0,000 mm 0,0 UV-I 0 W/m 10,0 C 11,7 C 3,5 km/h (1 Bft)
26.04.2015 00:00 11,6 C 91 % 1010,4 hPa 0,0 l/m 1,0 km/h (0 Bft) S-SW 0,00 h 0,000 mm 0,0 UV-I 0 W/m 10,1 C 11,6 C 3,7 km/h (1 Bft)
26.04.2015 01:00 11,4 C 92 % 1010,3 hPa 0,0 l/m 1,2 km/h (1 Bft) S-SW 0,00 h 0,000 mm 0,0 UV-I 0 W/m 10,2 C 11,4 C 3,5 km/h (1 Bft)
26.04.2015 02:00 11,5 C 92 % 1010,1 hPa 0,2 l/m 2,0 km/h (1 Bft) S 0,00 h 0,000 mm 0,0 UV-I 0 W/m 10,2 C 11,4 C 5,0 km/h (1 Bft)
26.04.2015 03:00 11,5 C 92 % 1009,9 hPa 0,0 l/m 1,0 km/h (0 Bft) S-SW 0,00 h 0,000 mm 0,0 UV-I 0 W/m 10,3 C 11,6 C 3,2 km/h (1 Bft)
26.04.2015 04:00 11,4 C 93 % 1009,6 hPa 0,2 l/m 1,3 km/h (1 Bft) SW 0,00 h 0,000 mm 0,0 UV-I 0 W/m 10,3 C 11,4 C 3,7 km/h (1 Bft)
26.04.2015 05:00 11,0 C 95 % 1009,4 hPa 0,0 l/m 0,3 km/h (0 Bft) N 0,00 h 0,000 mm 0,0 UV-I 0 W/m 10,2 C 11,0 C 1,5 km/h (1 Bft)
26.04.2015 06:00 10,9 C 96 % 1009,5 hPa 0,0 l/m 1,9 km/h (1 Bft) S 0,00 h 0,000 mm 0,0 UV-I 14 W/m 10,2 C 10,9 C 4,3 km/h (1 Bft)
26.04.2015 07:00 11,1 C 94 % 1009,6 hPa 0,0 l/m 1,7 km/h (1 Bft) S-SW 0,57 h 0,000 mm 0,5 UV-I 56 W/m 10,2 C 11,1 C 4,3 km/h (1 Bft)
26.04.2015 08:00 11,4 C 93 % 1009,7 hPa 0,0 l/m 2,5 km/h (1 Bft) S-SW 0,83 h 0,025 mm 0,6 UV-I 88 W/m 10,3 C 11,4 C 5,6 km/h (2 Bft)
26.04.2015 09:00 12,3 C 90 % 1009,5 hPa 0,0 l/m 2,6 km/h (1 Bft) W-SW 1,00 h 0,051 mm 1,0 UV-I 188 W/m 10,6 C 12,2 C 5,5 km/h (2 Bft)
26.04.2015 10:00 13,7 C 83 % 1009,3 hPa 0,0 l/m 4,5 km/h (1 Bft) S 1,00 h 0,102 mm 2,0 UV-I 338 W/m 10,8 C 13,3 C 8,6 km/h (2 Bft)
26.04.2015 11:00 14,4 C 77 % 1009,2 hPa 0,0 l/m 4,5 km/h (1 Bft) W-SW 1,00 h 0,203 mm 2,4 UV-I 276 W/m 10,3 C 14,2 C 8,4 km/h (2 Bft)
26.04.2015 12:00 15,7 C 72 % 1008,7 hPa 0,0 l/m 5,9 km/h (2 Bft) S 1,00 h 0,178 mm 3,6 UV-I 605 W/m 10,6 C 15,0 C 10,5 km/h (2 Bft)
26.04.2015 13:00 16,7 C 65 % 1008,2 hPa 0,0 l/m 6,6 km/h (2 Bft) W-SW 1,00 h 0,305 mm 3,3 UV-I 313 W/m 10,0 C 16,2 C 11,4 km/h (2 Bft)
26.04.2015 14:00 16,8 C 64 % 1007,8 hPa 0,0 l/m 8,5 km/h (2 Bft) W-SW 1,00 h 0,254 mm 2,7 UV-I 329 W/m 10,0 C 15,6 C 13,7 km/h (3 Bft)
26.04.2015 15:00 17,6 C 59 % 1007,3 hPa 0,0 l/m 10,2 km/h (2 Bft) S 1,00 h 0,254 mm 3,7 UV-I 692 W/m 9,5 C 16,0 C 16,6 km/h (3 Bft)
26.04.2015 16:00 18,3 C 56 % 1006,7 hPa 0,0 l/m 8,4 km/h (2 Bft) S 1,00 h 0,432 mm 2,4 UV-I 537 W/m 9,5 C 17,2 C 14,4 km/h (3 Bft)
26.04.2015 17:00 18,4 C 56 % 1006,1 hPa 0,0 l/m 5,8 km/h (2 Bft) S-SO 1,00 h 0,356 mm 1,4 UV-I 342 W/m 9,4 C 18,1 C 10,2 km/h (2 Bft)
26.04.2015 18:00 18,0 C 56 % 1005,7 hPa 0,0 l/m 5,4 km/h (2 Bft) S 1,00 h 0,229 mm 0,6 UV-I 89 W/m 9,1 C 17,7 C 9,5 km/h (2 Bft)
26.04.2015 19:00 16,8 C 62 % 1005,5 hPa 0,0 l/m 3,4 km/h (1 Bft) S-SO 0,02 h 0,076 mm 0,0 UV-I 31 W/m 9,5 C 16,7 C 6,2 km/h (2 Bft)
26.04.2015 20:00 15,4 C 69 % 1005,4 hPa 0,0 l/m 1,5 km/h (1 Bft) SO 0,00 h 0,051 mm 0,0 UV-I 8 W/m 9,8 C 15,4 C 3,3 km/h (1 Bft)
26.04.2015 21:00 13,6 C 78 % 1005,4 hPa 0,0 l/m 0,2 km/h (0 Bft) O 0,00 h 0,000 mm 0,0 UV-I 0 W/m 9,7 C 13,6 C 1,3 km/h (1 Bft)
26.04.2015 22:00 12,6 C 80 % 1005,1 hPa 0,0 l/m 0,2 km/h (0 Bft) N 0,00 h 0,000 mm 0,0 UV-I 0 W/m 9,3 C 12,6 C 0,8 km/h (0 Bft)
26.04.2015 23:00 11,2 C 85 % 1004,8 hPa 0,0 l/m 0,0 km/h (0 Bft) N 0,00 h 0,025 mm 0,0 UV-I 0 W/m 8,8 C 11,2 C 0,3 km/h (0 Bft)
Min-Datum _ 20.04.15 21.04.15 26.04.15 - 20.04.15 - - - - - 21.04.15 22.04.15 20.04.15
_ Min-Zeit 06:32 16:20 23:43 - 00:00 - - - - - 16:20 19:32 00:00
Minimum _ -0,5 C 20 % 1004,7 hPa - 0,0 km/h (0 Bft) - - - - - -3,1 C -1,3 C 0,0 km/h (0 Bft)
Max-Datum _ 21.04.15 26.04.15 21.04.15 22.04.15 21.04.15 - 26.04.15 21.04.15 26.04.15 22.04.15 26.04.15 21.04.15 21.04.15
_ Max-Zeit 14:50 05:59 07:57 23:16 16:15 - 07:35 14:00 12:24 12:23 14:51 14:54 16:15
Maximum _ 22,2 C 96 % 1028,1 hPa 2,4 l/m 32,2 km/h
N-NW (5 Bft)
- 0,03 h 0,584 mm 5,7 UV-I 1049 W/m 11,7 C 21,6 C 41,8 km/h
N-NW (6 Bft)
Durchschnitt _ 10,0 C 70 % 1018,2 hPa #4,0 l/m 3,9 km/h (1 Bft) N #79:00 h #23,260 mm 2,3 UV-I 348 W/m 3,9 C 9,4 C 6,8 km/h (2 Bft)